sensor_id;sensor_type;location;lat;lon;timestamp;pressure;altitude;pressure_sealevel;temperature;humidity
67931;BME280;54726;52.000;5.954;2022-09-12T00:01:05;101409.06;;;12.14;95.82
67931;BME280;54726;52.000;5.954;2022-09-12T00:02:06;101405.47;;;12.15;95.91
67931;BME280;54726;52.000;5.954;2022-09-12T00:03:07;101401.97;;;12.13;95.92
67931;BME280;54726;52.000;5.954;2022-09-12T00:04:09;101400.22;;;12.13;95.74
67931;BME280;54726;52.000;5.954;2022-09-12T00:05:09;101406.44;;;12.12;95.80
67931;BME280;54726;52.000;5.954;2022-09-12T00:06:12;101397.69;;;12.10;95.79
67931;BME280;54726;52.000;5.954;2022-09-12T00:07:14;101406.50;;;12.11;95.94
67931;BME280;54726;52.000;5.954;2022-09-12T00:08:14;101398.47;;;12.12;95.92
67931;BME280;54726;52.000;5.954;2022-09-12T00:09:15;101399.31;;;12.13;95.88
67931;BME280;54726;52.000;5.954;2022-09-12T00:10:16;101399.41;;;12.11;95.83
67931;BME280;54726;52.000;5.954;2022-09-12T00:11:18;101402.09;;;12.09;96.12
67931;BME280;54726;52.000;5.954;2022-09-12T00:12:18;101403.09;;;12.07;95.94
67931;BME280;54726;52.000;5.954;2022-09-12T00:13:18;101407.53;;;12.06;96.02
67931;BME280;54726;52.000;5.954;2022-09-12T00:14:19;101400.53;;;12.04;96.07
67931;BME280;54726;52.000;5.954;2022-09-12T00:15:19;101399.69;;;12.03;96.12
67931;BME280;54726;52.000;5.954;2022-09-12T00:16:22;101404.13;;;12.03;96.25
67931;BME280;54726;52.000;5.954;2022-09-12T00:17:22;101407.66;;;12.03;96.22
67931;BME280;54726;52.000;5.954;2022-09-12T00:18:23;101403.28;;;12.02;96.07
67931;BME280;54726;52.000;5.954;2022-09-12T00:19:24;101397.97;;;12.02;96.16
67931;BME280;54726;52.000;5.954;2022-09-12T00:20:24;101391.78;;;12.02;96.22
67931;BME280;54726;52.000;5.954;2022-09-12T00:21:25;101399.81;;;12.00;96.10
67931;BME280;54726;52.000;5.954;2022-09-12T00:22:25;101401.53;;;12.01;96.31
67931;BME280;54726;52.000;5.954;2022-09-12T00:23:26;101390.97;;;12.00;96.39
67931;BME280;54726;52.000;5.954;2022-09-12T00:24:26;101396.28;;;12.00;96.20
67931;BME280;54726;52.000;5.954;2022-09-12T00:25:27;101388.34;;;11.98;96.51
67931;BME280;54726;52.000;5.954;2022-09-12T00:26:29;101391.00;;;11.98;96.24
67931;BME280;54726;52.000;5.954;2022-09-12T00:27:29;101395.47;;;11.98;96.22
67931;BME280;54726;52.000;5.954;2022-09-12T00:28:29;101391.13;;;11.95;96.49
67931;BME280;54726;52.000;5.954;2022-09-12T00:29:30;101390.25;;;11.95;96.50
67931;BME280;54726;52.000;5.954;2022-09-12T00:30:30;101393.84;;;11.94;96.42
67931;BME280;54726;52.000;5.954;2022-09-12T00:31:31;101388.59;;;11.92;96.62
67931;BME280;54726;52.000;5.954;2022-09-12T00:32:31;101389.53;;;11.91;96.50
67931;BME280;54726;52.000;5.954;2022-09-12T00:33:33;101387.72;;;11.92;96.56
67931;BME280;54726;52.000;5.954;2022-09-12T00:34:33;101382.41;;;11.92;96.51
67931;BME280;54726;52.000;5.954;2022-09-12T00:35:40;101374.56;;;11.89;96.74
67931;BME280;54726;52.000;5.954;2022-09-12T00:36:40;101379.06;;;11.86;96.62
67931;BME280;54726;52.000;5.954;2022-09-12T00:37:41;101383.38;;;11.89;96.68
67931;BME280;54726;52.000;5.954;2022-09-12T00:38:41;101381.66;;;11.88;96.49
67931;BME280;54726;52.000;5.954;2022-09-12T00:39:42;101376.44;;;11.85;96.66
67931;BME280;54726;52.000;5.954;2022-09-12T00:40:43;101385.31;;;11.84;96.58
67931;BME280;54726;52.000;5.954;2022-09-12T00:41:45;101380.97;;;11.81;96.77
67931;BME280;54726;52.000;5.954;2022-09-12T00:42:45;101381.06;;;11.80;96.60
67931;BME280;54726;52.000;5.954;2022-09-12T00:43:47;101381.06;;;11.80;96.63
67931;BME280;54726;52.000;5.954;2022-09-12T00:44:50;101382.84;;;11.79;96.86
67931;BME280;54726;52.000;5.954;2022-09-12T00:45:51;101376.75;;;11.76;96.80
67931;BME280;54726;52.000;5.954;2022-09-12T00:46:55;101379.38;;;11.77;96.98
67931;BME280;54726;52.000;5.954;2022-09-12T00:48:00;101381.16;;;11.77;96.55
67931;BME280;54726;52.000;5.954;2022-09-12T00:49:04;101383.75;;;11.78;96.74
67931;BME280;54726;52.000;5.954;2022-09-12T00:50:08;101381.16;;;11.77;96.68
67931;BME280;54726;52.000;5.954;2022-09-12T00:51:12;101385.53;;;11.78;96.82
67931;BME280;54726;52.000;5.954;2022-09-12T00:52:15;101370.56;;;11.75;96.94
67931;BME280;54726;52.000;5.954;2022-09-12T00:53:19;101374.09;;;11.76;96.94
67931;BME280;54726;52.000;5.954;2022-09-12T00:54:21;101374.19;;;11.74;96.80
67931;BME280;54726;52.000;5.954;2022-09-12T00:55:25;101373.25;;;11.75;96.90
67931;BME280;54726;52.000;5.954;2022-09-12T00:56:27;101367.91;;;11.75;96.66
67931;BME280;54726;52.000;5.954;2022-09-12T00:57:32;101373.25;;;11.75;96.50
67931;BME280;54726;52.000;5.954;2022-09-12T00:58:37;101369.72;;;11.75;96.74
67931;BME280;54726;52.000;5.954;2022-09-12T00:59:42;101371.63;;;11.71;96.91
67931;BME280;54726;52.000;5.954;2022-09-12T01:00:45;101355.09;;;11.63;96.71
67931;BME280;54726;52.000;5.954;2022-09-12T01:01:47;101369.09;;;11.68;96.75
67931;BME280;54726;52.000;5.954;2022-09-12T01:02:51;101366.47;;;11.67;97.13
67931;BME280;54726;52.000;5.954;2022-09-12T01:03:52;101375.28;;;11.69;97.04
67931;BME280;54726;52.000;5.954;2022-09-12T01:04:53;101364.69;;;11.67;97.21
67931;BME280;54726;52.000;5.954;2022-09-12T01:05:58;101362.97;;;11.66;96.87
67931;BME280;54726;52.000;5.954;2022-09-12T01:07:03;101362.97;;;11.66;97.14
67931;BME280;54726;52.000;5.954;2022-09-12T01:08:04;101366.56;;;11.65;97.01
67931;BME280;54726;52.000;5.954;2022-09-12T01:09:05;101361.25;;;11.65;96.96
67931;BME280;54726;52.000;5.954;2022-09-12T01:10:08;101362.13;;;11.64;97.02
67931;BME280;54726;52.000;5.954;2022-09-12T01:11:09;101364.91;;;11.61;96.94
67931;BME280;54726;52.000;5.954;2022-09-12T01:12:12;101364.94;;;11.59;97.12
67931;BME280;54726;52.000;5.954;2022-09-12T01:13:15;101360.53;;;11.60;97.02
67931;BME280;54726;52.000;5.954;2022-09-12T01:14:16;101355.34;;;11.57;97.25
67931;BME280;54726;52.000;5.954;2022-09-12T01:15:17;101361.50;;;11.57;97.09
67931;BME280;54726;52.000;5.954;2022-09-12T01:16:18;101360.66;;;11.57;97.23
67931;BME280;54726;52.000;5.954;2022-09-12T01:17:19;101355.34;;;11.57;97.19
67931;BME280;54726;52.000;5.954;2022-09-12T01:18:24;101349.19;;;11.55;97.18
67931;BME280;54726;52.000;5.954;2022-09-12T01:21:19;101356.34;;;11.53;97.25
67931;BME280;54726;52.000;5.954;2022-09-12T01:22:35;101352.84;;;11.52;97.15
67931;BME280;54726;52.000;5.954;2022-09-12T01:24:10;101353.00;;;11.48;96.99
67931;BME280;54726;52.000;5.954;2022-09-12T01:25:19;101354.78;;;11.47;96.97
67931;BME280;54726;52.000;5.954;2022-09-12T01:26:38;101360.97;;;11.48;96.83
67931;BME280;54726;52.000;5.954;2022-09-12T01:27:48;101357.50;;;11.46;97.00
67931;BME280;54726;52.000;5.954;2022-09-12T01:29:13;101353.94;;;11.47;96.85
67931;BME280;54726;52.000;5.954;2022-09-12T01:30:44;101349.53;;;11.46;96.98
67931;BME280;54726;52.000;5.954;2022-09-12T01:31:51;101347.75;;;11.46;96.74
67931;BME280;54726;52.000;5.954;2022-09-12T01:33:09;101342.44;;;11.46;96.72
67931;BME280;54726;52.000;5.954;2022-09-12T01:34:17;101340.63;;;11.47;96.82
67931;BME280;54726;52.000;5.954;2022-09-12T01:35:25;101340.63;;;11.47;96.54
67931;BME280;54726;52.000;5.954;2022-09-12T01:36:38;101338.09;;;11.43;96.74
67931;BME280;54726;52.000;5.954;2022-09-12T01:37:48;101338.22;;;11.40;96.84
67931;BME280;54726;52.000;5.954;2022-09-12T01:38:58;101339.13;;;11.39;96.96
67931;BME280;54726;52.000;5.954;2022-09-12T01:40:02;101336.53;;;11.38;96.83
67931;BME280;54726;52.000;5.954;2022-09-12T01:41:10;101336.56;;;11.36;96.89
67931;BME280;54726;52.000;5.954;2022-09-12T01:42:22;101340.16;;;11.35;96.86
67931;BME280;54726;52.000;5.954;2022-09-12T01:43:31;101336.66;;;11.35;96.93
67931;BME280;54726;52.000;5.954;2022-09-12T01:44:37;101333.13;;;11.34;96.88
67931;BME280;54726;52.000;5.954;2022-09-12T01:45:42;101336.75;;;11.32;96.74
67931;BME280;54726;52.000;5.954;2022-09-12T01:46:51;101325.16;;;11.34;96.83
67931;BME280;54726;52.000;5.954;2022-09-12T01:47:58;101329.53;;;11.35;96.92
67931;BME280;54726;52.000;5.954;2022-09-12T01:49:05;101328.69;;;11.35;96.82
67931;BME280;54726;52.000;5.954;2022-09-12T01:50:10;101325.16;;;11.34;96.71
67931;BME280;54726;52.000;5.954;2022-09-12T01:51:18;101325.19;;;11.33;97.13
67931;BME280;54726;52.000;5.954;2022-09-12T01:52:24;101322.50;;;11.34;96.93
67931;BME280;54726;52.000;5.954;2022-09-12T01:53:32;101321.56;;;11.35;96.83
67931;BME280;54726;52.000;5.954;2022-09-12T01:54:37;101320.59;;;11.38;96.82
67931;BME280;54726;52.000;5.954;2022-09-12T01:55:41;101323.28;;;11.36;96.51
67931;BME280;54726;52.000;5.954;2022-09-12T01:56:46;101318.06;;;11.35;96.89
67931;BME280;54726;52.000;5.954;2022-09-12T01:57:51;101310.88;;;11.37;96.76
67931;BME280;54726;52.000;5.954;2022-09-12T01:58:59;101309.13;;;11.37;96.95
67931;BME280;54726;52.000;5.954;2022-09-12T02:00:05;101310.00;;;11.36;97.04
67931;BME280;54726;52.000;5.954;2022-09-12T02:01:10;101313.59;;;11.35;96.75
67931;BME280;54726;52.000;5.954;2022-09-12T02:02:15;101308.22;;;11.37;96.84
67931;BME280;54726;52.000;5.954;2022-09-12T02:03:19;101302.91;;;11.37;96.83
67931;BME280;54726;52.000;5.954;2022-09-12T02:04:24;101303.84;;;11.36;97.02
67931;BME280;54726;52.000;5.954;2022-09-12T02:05:30;101311.06;;;11.32;97.07
67931;BME280;54726;52.000;5.954;2022-09-12T02:06:35;101301.47;;;11.28;97.24
67931;BME280;54726;52.000;5.954;2022-09-12T02:07:40;101305.03;;;11.27;97.23
67931;BME280;54726;52.000;5.954;2022-09-12T02:08:45;101303.31;;;11.26;97.41
67931;BME280;54726;52.000;5.954;2022-09-12T02:09:51;101308.63;;;11.26;97.41
67931;BME280;54726;52.000;5.954;2022-09-12T02:10:56;101303.31;;;11.26;97.21
67931;BME280;54726;52.000;5.954;2022-09-12T02:12:00;101306.84;;;11.27;97.28
67931;BME280;54726;52.000;5.954;2022-09-12T02:13:07;101299.78;;;11.26;97.32
67931;BME280;54726;52.000;5.954;2022-09-12T02:14:10;101293.59;;;11.25;97.42
67931;BME280;54726;52.000;5.954;2022-09-12T02:15:14;101295.41;;;11.25;97.45
67931;BME280;54726;52.000;5.954;2022-09-12T02:16:17;101286.69;;;11.21;97.42
67931;BME280;54726;52.000;5.954;2022-09-12T02:17:22;101292.81;;;11.23;97.60
67931;BME280;54726;52.000;5.954;2022-09-12T02:18:25;101287.50;;;11.23;97.57
67931;BME280;54726;52.000;5.954;2022-09-12T02:19:33;101295.41;;;11.25;97.49
67931;BME280;54726;52.000;5.954;2022-09-12T02:20:37;101296.25;;;11.25;97.52
67931;BME280;54726;52.000;5.954;2022-09-12T02:21:43;101294.53;;;11.24;97.37
67931;BME280;54726;52.000;5.954;2022-09-12T02:22:47;101294.53;;;11.24;97.58
67931;BME280;54726;52.000;5.954;2022-09-12T02:23:54;101291.94;;;11.23;97.59
67931;BME280;54726;52.000;5.954;2022-09-12T02:24:58;101293.78;;;11.20;97.70
67931;BME280;54726;52.000;5.954;2022-09-12T02:26:04;101295.56;;;11.20;97.61
67931;BME280;54726;52.000;5.954;2022-09-12T02:27:11;101294.78;;;11.18;97.78
67931;BME280;54726;52.000;5.954;2022-09-12T02:28:17;101291.25;;;11.17;97.60
67931;BME280;54726;52.000;5.954;2022-09-12T02:29:18;101297.47;;;11.16;97.89
67931;BME280;54726;52.000;5.954;2022-09-12T02:30:19;101294.78;;;11.18;97.98
67931;BME280;54726;52.000;5.954;2022-09-12T02:31:22;101299.22;;;11.17;97.87
67931;BME280;54726;52.000;5.954;2022-09-12T02:32:28;101294.78;;;11.18;97.63
67931;BME280;54726;52.000;5.954;2022-09-12T02:33:33;101296.59;;;11.16;97.80
67931;BME280;54726;52.000;5.954;2022-09-12T02:34:42;101297.47;;;11.16;98.08
67931;BME280;54726;52.000;5.954;2022-09-12T02:35:45;101290.47;;;11.14;97.83
67931;BME280;54726;52.000;5.954;2022-09-12T02:36:53;101300.31;;;11.12;97.80
67931;BME280;54726;52.000;5.954;2022-09-12T02:37:59;101297.66;;;11.12;98.14
67931;BME280;54726;52.000;5.954;2022-09-12T02:39:02;101299.41;;;11.11;98.02
67931;BME280;54726;52.000;5.954;2022-09-12T02:40:03;101303.00;;;11.10;98.14
67931;BME280;54726;52.000;5.954;2022-09-12T02:41:04;101301.28;;;11.09;98.12
67931;BME280;54726;52.000;5.954;2022-09-12T02:42:04;101299.53;;;11.08;98.17
67931;BME280;54726;52.000;5.954;2022-09-12T02:43:06;101291.63;;;11.07;98.17
67931;BME280;54726;52.000;5.954;2022-09-12T02:44:06;101298.66;;;11.08;98.42
67931;BME280;54726;52.000;5.954;2022-09-12T02:45:07;101293.44;;;11.06;98.09
67931;BME280;54726;52.000;5.954;2022-09-12T02:46:12;101296.94;;;11.07;98.34
67931;BME280;54726;52.000;5.954;2022-09-12T02:47:18;101292.53;;;11.06;98.15
67931;BME280;54726;52.000;5.954;2022-09-12T02:48:22;101296.13;;;11.05;98.16
67931;BME280;54726;52.000;5.954;2022-09-12T02:49:25;101295.25;;;11.04;98.22
67931;BME280;54726;52.000;5.954;2022-09-12T02:50:26;101292.59;;;11.04;98.34
67931;BME280;54726;52.000;5.954;2022-09-12T02:51:27;101291.78;;;11.02;98.20
67931;BME280;54726;52.000;5.954;2022-09-12T02:52:27;101294.44;;;11.02;98.38
67931;BME280;54726;52.000;5.954;2022-09-12T02:53:28;101290.06;;;11.01;98.38
67931;BME280;54726;52.000;5.954;2022-09-12T02:54:29;101286.59;;;10.99;98.47
67931;BME280;54726;52.000;5.954;2022-09-12T02:55:31;101287.44;;;11.00;98.31
67931;BME280;54726;52.000;5.954;2022-09-12T02:56:32;101280.41;;;10.98;98.33
67931;BME280;54726;52.000;5.954;2022-09-12T02:57:33;101282.13;;;11.00;98.23
67931;BME280;54726;52.000;5.954;2022-09-12T02:58:33;101275.34;;;10.92;98.53
67931;BME280;54726;52.000;5.954;2022-09-12T02:59:34;101289.28;;;10.97;98.57
67931;BME280;54726;52.000;5.954;2022-09-12T03:00:39;101290.22;;;10.96;98.41
67931;BME280;54726;52.000;5.954;2022-09-12T03:01:55;101286.63;;;10.97;98.43
67931;BME280;54726;52.000;5.954;2022-09-12T03:03:13;101289.34;;;10.96;98.43
67931;BME280;54726;52.000;5.954;2022-09-12T03:04:34;101285.75;;;10.97;98.04
67931;BME280;54726;52.000;5.954;2022-09-12T03:05:46;101281.31;;;10.97;98.30
67931;BME280;54726;52.000;5.954;2022-09-12T03:06:59;101280.44;;;10.97;97.93
67931;BME280;54726;52.000;5.954;2022-09-12T03:08:16;101277.88;;;10.95;98.14
67931;BME280;54726;52.000;5.954;2022-09-12T03:09:27;101274.28;;;10.96;98.06
67931;BME280;54726;52.000;5.954;2022-09-12T03:10:41;101275.22;;;10.95;97.92
67931;BME280;54726;52.000;5.954;2022-09-12T03:12:00;101279.59;;;10.96;97.93
67931;BME280;54726;52.000;5.954;2022-09-12T03:13:07;101274.25;;;10.98;97.65
67931;BME280;54726;52.000;5.954;2022-09-12T03:14:25;101269.91;;;10.95;97.55
67931;BME280;54726;52.000;5.954;2022-09-12T03:15:38;101269.94;;;10.94;97.73
67931;BME280;54726;52.000;5.954;2022-09-12T03:16:44;101269.91;;;10.95;97.78
67931;BME280;54726;52.000;5.954;2022-09-12T03:18:07;101275.25;;;10.94;97.98
67931;BME280;54726;52.000;5.954;2022-09-12T03:19:22;101269.09;;;10.93;97.58
67931;BME280;54726;52.000;5.954;2022-09-12T03:20:28;101269.19;;;10.90;97.96
67931;BME280;54726;52.000;5.954;2022-09-12T03:21:36;101269.19;;;10.90;97.88
67931;BME280;54726;52.000;5.954;2022-09-12T03:22:50;101266.53;;;10.90;97.27
67931;BME280;54726;52.000;5.954;2022-09-12T03:24:01;101262.06;;;10.92;97.44
67931;BME280;54726;52.000;5.954;2022-09-12T03:25:11;101262.06;;;10.92;97.66
67931;BME280;54726;52.000;5.954;2022-09-12T03:26:16;101260.19;;;10.94;97.53
67931;BME280;54726;52.000;5.954;2022-09-12T03:27:24;101263.66;;;10.96;97.44
67931;BME280;54726;52.000;5.954;2022-09-12T03:28:27;101261.00;;;10.96;97.51
67931;BME280;54726;52.000;5.954;2022-09-12T03:29:29;101258.38;;;10.96;97.47
67931;BME280;54726;52.000;5.954;2022-09-12T03:30:29;101261.88;;;10.97;97.56
67931;BME280;54726;52.000;5.954;2022-09-12T03:31:30;101261.00;;;10.96;97.69
67931;BME280;54726;52.000;5.954;2022-09-12T03:32:40;101261.06;;;10.95;97.62
67931;BME280;54726;52.000;5.954;2022-09-12T03:33:41;101259.28;;;10.95;97.59
67931;BME280;54726;52.000;5.954;2022-09-12T03:34:41;101261.94;;;10.95;97.59
67931;BME280;54726;52.000;5.954;2022-09-12T03:35:43;101261.94;;;10.95;97.44
67931;BME280;54726;52.000;5.954;2022-09-12T03:36:45;101258.38;;;10.96;97.54
67931;BME280;54726;52.000;5.954;2022-09-12T03:37:45;101261.94;;;10.95;97.55
67931;BME280;54726;52.000;5.954;2022-09-12T03:38:46;101257.53;;;10.94;97.47
67931;BME280;54726;52.000;5.954;2022-09-12T03:39:47;101255.75;;;10.95;97.83
67931;BME280;54726;52.000;5.954;2022-09-12T03:40:47;101259.34;;;10.94;97.77
67931;BME280;54726;52.000;5.954;2022-09-12T03:41:48;101251.44;;;10.92;97.75
67931;BME280;54726;52.000;5.954;2022-09-12T03:42:49;101254.97;;;10.93;97.94
67931;BME280;54726;52.000;5.954;2022-09-12T03:43:49;101253.16;;;10.93;97.81
67931;BME280;54726;52.000;5.954;2022-09-12T03:44:49;101253.16;;;10.93;97.89
67931;BME280;54726;52.000;5.954;2022-09-12T03:45:50;101246.19;;;10.91;98.06
67931;BME280;54726;52.000;5.954;2022-09-12T03:46:50;101242.69;;;10.89;98.03
67931;BME280;54726;52.000;5.954;2022-09-12T03:47:51;101255.00;;;10.91;98.05
67931;BME280;54726;52.000;5.954;2022-09-12T03:48:51;101246.22;;;10.89;98.08
67931;BME280;54726;52.000;5.954;2022-09-12T03:49:51;101243.53;;;10.91;98.06
67931;BME280;54726;52.000;5.954;2022-09-12T03:50:53;101250.50;;;10.93;98.13
67931;BME280;54726;52.000;5.954;2022-09-12T03:51:54;101250.56;;;10.92;98.29
67931;BME280;54726;52.000;5.954;2022-09-12T03:52:54;101244.38;;;10.91;98.29
67931;BME280;54726;52.000;5.954;2022-09-12T03:53:54;101243.53;;;10.91;98.28
67931;BME280;54726;52.000;5.954;2022-09-12T03:54:55;101239.06;;;10.91;98.41
67931;BME280;54726;52.000;5.954;2022-09-12T03:55:55;101247.84;;;10.93;98.44
67931;BME280;54726;52.000;5.954;2022-09-12T03:56:56;101239.94;;;10.92;98.32
67931;BME280;54726;52.000;5.954;2022-09-12T03:57:56;101247.03;;;10.91;98.31
67931;BME280;54726;52.000;5.954;2022-09-12T03:58:57;101243.56;;;10.89;98.25
67931;BME280;54726;52.000;5.954;2022-09-12T03:59:57;101243.41;;;10.94;98.52
67931;BME280;54726;52.000;5.954;2022-09-12T04:00:57;101241.63;;;10.94;98.51
67931;BME280;54726;52.000;5.954;2022-09-12T04:01:58;101247.84;;;10.93;98.50
67931;BME280;54726;52.000;5.954;2022-09-12T04:02:58;101245.13;;;10.95;98.61
67931;BME280;54726;52.000;5.954;2022-09-12T04:03:59;101250.44;;;10.95;98.42
67931;BME280;54726;52.000;5.954;2022-09-12T04:04:59;101245.19;;;10.93;98.33
67931;BME280;54726;52.000;5.954;2022-09-12T04:06:01;101244.22;;;10.96;98.44
67931;BME280;54726;52.000;5.954;2022-09-12T04:07:02;101251.34;;;10.95;98.22
67931;BME280;54726;52.000;5.954;2022-09-12T04:08:02;101250.41;;;10.96;98.43
67931;BME280;54726;52.000;5.954;2022-09-12T04:09:03;101247.78;;;10.95;98.30
67931;BME280;54726;52.000;5.954;2022-09-12T04:10:04;101242.56;;;10.93;98.33
67931;BME280;54726;52.000;5.954;2022-09-12T04:11:06;101243.41;;;10.94;98.66
67931;BME280;54726;52.000;5.954;2022-09-12T04:12:07;101249.47;;;10.97;98.62
67931;BME280;54726;52.000;5.954;2022-09-12T04:13:07;101249.34;;;11.01;98.53
67931;BME280;54726;52.000;5.954;2022-09-12T04:14:08;101245.84;;;11.00;98.41
67931;BME280;54726;52.000;5.954;2022-09-12T04:15:09;101245.84;;;11.00;98.72
67931;BME280;54726;52.000;5.954;2022-09-12T04:16:11;101245.91;;;10.98;98.79
67931;BME280;54726;52.000;5.954;2022-09-12T04:17:11;101248.50;;;11.00;98.87
67931;BME280;54726;52.000;5.954;2022-09-12T04:18:12;101246.69;;;11.01;98.70
67931;BME280;54726;52.000;5.954;2022-09-12T04:19:12;101238.81;;;10.99;98.60
67931;BME280;54726;52.000;5.954;2022-09-12T04:20:13;101241.38;;;11.01;98.62
67931;BME280;54726;52.000;5.954;2022-09-12T04:21:16;101252.00;;;11.01;98.93
67931;BME280;54726;52.000;5.954;2022-09-12T04:22:17;101245.84;;;11.00;98.71
67931;BME280;54726;52.000;5.954;2022-09-12T04:23:18;101242.41;;;10.98;99.04
67931;BME280;54726;52.000;5.954;2022-09-12T04:24:18;101234.44;;;10.98;98.69
67931;BME280;54726;52.000;5.954;2022-09-12T04:25:19;101238.81;;;10.99;98.91
67931;BME280;54726;52.000;5.954;2022-09-12T04:26:19;101233.53;;;10.97;98.97
67931;BME280;54726;52.000;5.954;2022-09-12T04:27:20;101236.19;;;10.97;99.14
67931;BME280;54726;52.000;5.954;2022-09-12T04:28:20;101235.28;;;10.98;98.99
67931;BME280;54726;52.000;5.954;2022-09-12T04:29:21;101236.16;;;10.99;99.07
67931;BME280;54726;52.000;5.954;2022-09-12T04:30:21;101230.03;;;10.97;98.77
67931;BME280;54726;52.000;5.954;2022-09-12T04:31:22;101229.97;;;10.98;98.87
67931;BME280;54726;52.000;5.954;2022-09-12T04:32:23;101229.91;;;11.00;98.74
67931;BME280;54726;52.000;5.954;2022-09-12T04:33:24;101230.78;;;11.01;98.81
67931;BME280;54726;52.000;5.954;2022-09-12T04:34:24;101227.25;;;11.00;99.02
67931;BME280;54726;52.000;5.954;2022-09-12T04:35:25;101227.25;;;11.00;98.92
67931;BME280;54726;52.000;5.954;2022-09-12T04:36:28;101229.88;;;11.02;99.15
67931;BME280;54726;52.000;5.954;2022-09-12T04:37:28;101226.41;;;11.00;98.97
67931;BME280;54726;52.000;5.954;2022-09-12T04:38:29;101228.13;;;11.01;98.99
67931;BME280;54726;52.000;5.954;2022-09-12T04:39:29;101229.88;;;11.02;99.03
67931;BME280;54726;52.000;5.954;2022-09-12T04:40:29;101232.53;;;11.02;99.15
67931;BME280;54726;52.000;5.954;2022-09-12T04:41:32;101233.34;;;11.04;99.23
67931;BME280;54726;52.000;5.954;2022-09-12T04:42:32;101233.34;;;11.04;99.14
67931;BME280;54726;52.000;5.954;2022-09-12T04:43:33;101234.13;;;11.06;99.05
67931;BME280;54726;52.000;5.954;2022-09-12T04:44:33;101226.13;;;11.07;99.01
67931;BME280;54726;52.000;5.954;2022-09-12T04:45:33;101232.41;;;11.05;99.02
67931;BME280;54726;52.000;5.954;2022-09-12T04:46:36;101230.63;;;11.05;99.26
67931;BME280;54726;52.000;5.954;2022-09-12T04:47:37;101238.56;;;11.05;99.29
67931;BME280;54726;52.000;5.954;2022-09-12T04:48:37;101233.28;;;11.05;99.13
67931;BME280;54726;52.000;5.954;2022-09-12T04:49:38;101235.03;;;11.06;99.21
67931;BME280;54726;52.000;5.954;2022-09-12T04:50:38;101240.34;;;11.06;99.38
67931;BME280;54726;52.000;5.954;2022-09-12T04:51:41;101236.66;;;11.09;99.21
67931;BME280;54726;52.000;5.954;2022-09-12T04:52:42;101240.22;;;11.09;99.36
67931;BME280;54726;52.000;5.954;2022-09-12T04:53:46;101237.50;;;11.11;99.44
67931;BME280;54726;52.000;5.954;2022-09-12T04:54:47;101234.72;;;11.14;99.11
67931;BME280;54726;52.000;5.954;2022-09-12T04:55:48;101238.19;;;11.16;98.96
67931;BME280;54726;52.000;5.954;2022-09-12T04:56:49;101236.47;;;11.15;99.08
67931;BME280;54726;52.000;5.954;2022-09-12T04:57:49;101239.97;;;11.15;98.93
67931;BME280;54726;52.000;5.954;2022-09-12T04:58:50;101231.16;;;11.15;99.19
67931;BME280;54726;52.000;5.954;2022-09-12T04:59:50;101234.84;;;11.11;98.87
67931;BME280;54726;52.000;5.954;2022-09-12T05:00:51;101237.38;;;11.14;99.25
67931;BME280;54726;52.000;5.954;2022-09-12T05:01:51;101233.00;;;11.13;99.25
67931;BME280;54726;52.000;5.954;2022-09-12T05:02:52;101233.00;;;11.13;99.41
67931;BME280;54726;52.000;5.954;2022-09-12T05:03:53;101229.53;;;11.11;99.44
67931;BME280;54726;52.000;5.954;2022-09-12T05:04:53;101228.66;;;11.10;99.51
67931;BME280;54726;52.000;5.954;2022-09-12T05:05:54;101227.72;;;11.11;99.62
67931;BME280;54726;52.000;5.954;2022-09-12T05:06:56;101224.09;;;11.14;99.62
67931;BME280;54726;52.000;5.954;2022-09-12T05:07:56;101228.50;;;11.15;99.53
67931;BME280;54726;52.000;5.954;2022-09-12T05:08:57;101223.00;;;11.19;99.34
67931;BME280;54726;52.000;5.954;2022-09-12T05:09:58;101226.53;;;11.20;99.07
67931;BME280;54726;52.000;5.954;2022-09-12T05:11:01;101215.13;;;11.18;99.39
67931;BME280;54726;52.000;5.954;2022-09-12T05:12:02;101225.63;;;11.21;99.37
67931;BME280;54726;52.000;5.954;2022-09-12T05:13:02;101230.06;;;11.20;99.45
67931;BME280;54726;52.000;5.954;2022-09-12T05:14:03;101230.97;;;11.19;99.64
67931;BME280;54726;52.000;5.954;2022-09-12T05:15:04;101225.66;;;11.19;99.49
67931;BME280;54726;52.000;5.954;2022-09-12T05:16:06;101229.19;;;11.20;99.70
67931;BME280;54726;52.000;5.954;2022-09-12T05:17:07;101227.41;;;11.20;99.63
67931;BME280;54726;52.000;5.954;2022-09-12T05:18:07;101225.63;;;11.21;99.50
67931;BME280;54726;52.000;5.954;2022-09-12T05:19:10;101227.47;;;11.19;99.66
67931;BME280;54726;52.000;5.954;2022-09-12T05:20:10;101228.19;;;11.23;99.73
67931;BME280;54726;52.000;5.954;2022-09-12T05:21:12;101215.84;;;11.22;99.77
67931;BME280;54726;52.000;5.954;2022-09-12T05:22:14;101230.81;;;11.24;99.54
67931;BME280;54726;52.000;5.954;2022-09-12T05:23:15;101232.59;;;11.24;99.69
67931;BME280;54726;52.000;5.954;2022-09-12T05:24:15;101233.47;;;11.24;99.67
67931;BME280;54726;52.000;5.954;2022-09-12T05:25:16;101234.28;;;11.26;99.63
67931;BME280;54726;52.000;5.954;2022-09-12T05:26:16;101227.09;;;11.28;99.87
67931;BME280;54726;52.000;5.954;2022-09-12T05:27:17;101227.06;;;11.30;99.50
67931;BME280;54726;52.000;5.954;2022-09-12T05:28:18;101233.13;;;11.33;99.49
67931;BME280;54726;52.000;5.954;2022-09-12T05:29:19;101226.91;;;11.34;99.45
67931;BME280;54726;52.000;5.954;2022-09-12T05:30:19;101234.78;;;11.36;99.25
67931;BME280;54726;52.000;5.954;2022-09-12T05:31:21;101238.19;;;11.39;99.51
67931;BME280;54726;52.000;5.954;2022-09-12T05:32:22;101231.13;;;11.40;99.34
67931;BME280;54726;52.000;5.954;2022-09-12T05:33:23;101233.69;;;11.41;99.38
67931;BME280;54726;52.000;5.954;2022-09-12T05:34:23;101230.22;;;11.39;99.45